createdAt,value
2022-09-06T00:00:17.937Z,79.08
2022-09-06T00:00:49.856Z,79.24
2022-09-06T00:01:23.426Z,79.14
2022-09-06T00:01:54.993Z,79.16
2022-09-06T00:02:32.957Z,79.41
2022-09-06T00:03:04.795Z,79.29
2022-09-06T00:03:36.446Z,79.16
2022-09-06T00:04:10.708Z,79.02
2022-09-06T00:04:46.089Z,79.11
2022-09-06T00:05:17.978Z,79.03
2022-09-06T00:05:50.733Z,79.24
2022-09-06T00:06:22.296Z,79.45
2022-09-06T00:06:53.823Z,79.48
2022-09-06T00:07:25.531Z,79.25
2022-09-06T00:08:01.406Z,79.47
2022-09-06T00:08:32.899Z,79.44
2022-09-06T00:09:04.465Z,79.88
2022-09-06T00:09:36.132Z,79.75
2022-09-06T00:10:08.758Z,79.55
2022-09-06T00:10:40.654Z,80.09
2022-09-06T00:11:13.184Z,79.98
2022-09-06T00:11:44.860Z,79.98
2022-09-06T00:12:16.500Z,80.23
2022-09-06T00:12:48.088Z,80.30
2022-09-06T00:13:19.595Z,80.26
2022-09-06T00:13:51.098Z,79.84
2022-09-06T00:14:22.666Z,79.94
2022-09-06T00:14:54.408Z,79.60
2022-09-06T00:15:25.899Z,79.52
2022-09-06T00:16:04.831Z,79.34
2022-09-06T00:16:36.489Z,79.29
2022-09-06T00:17:08.044Z,79.83
2022-09-06T00:17:39.556Z,80.24
2022-09-06T00:18:11.060Z,80.29
2022-09-06T00:18:43.591Z,80.21
2022-09-06T00:19:15.092Z,80.30
2022-09-06T00:19:46.734Z,80.06
2022-09-06T00:20:18.306Z,80.15
2022-09-06T00:20:49.939Z,80.24
2022-09-06T00:21:26.446Z,80.21
2022-09-06T00:21:57.935Z,80.21
2022-09-06T00:22:29.595Z,79.97
2022-09-06T00:23:03.756Z,79.80
2022-09-06T00:23:35.256Z,79.91
2022-09-06T00:24:06.977Z,79.90
2022-09-06T00:24:38.555Z,79.86
2022-09-06T00:25:10.532Z,80.07
2022-09-06T00:25:42.098Z,80.31
2022-09-06T00:26:13.763Z,80.28
2022-09-06T00:26:45.232Z,80.77
2022-09-06T00:27:16.842Z,80.56
2022-09-06T00:27:48.383Z,81.09
2022-09-06T00:28:19.926Z,81.33
2022-09-06T00:28:51.501Z,81.11
2022-09-06T00:29:23.179Z,81.08
2022-09-06T00:29:54.671Z,80.79
2022-09-06T00:30:27.086Z,81.21
2022-09-06T00:30:58.641Z,80.61
2022-09-06T00:31:30.309Z,81.27
2022-09-06T00:32:02.050Z,80.91
2022-09-06T00:32:33.561Z,81.05
2022-09-06T00:33:05.122Z,81.38
2022-09-06T00:33:36.959Z,81.58
2022-09-06T00:34:08.566Z,82.18
2022-09-06T00:34:40.295Z,82.40
2022-09-06T00:35:11.894Z,82.63
2022-09-06T00:35:47.244Z,82.73
2022-09-06T00:36:20.210Z,82.65
2022-09-06T00:36:51.738Z,82.68
2022-09-06T00:37:23.302Z,82.85
2022-09-06T00:38:01.767Z,82.42
2022-09-06T00:38:33.553Z,82.60
2022-09-06T00:39:05.134Z,82.69
2022-09-06T00:39:36.643Z,82.07
2022-09-06T00:40:08.904Z,82.11
2022-09-06T00:40:40.721Z,82.32
2022-09-06T00:41:14.492Z,82.05
2022-09-06T00:41:46.019Z,82.36
2022-09-06T00:42:17.502Z,82.61
2022-09-06T00:42:49.086Z,82.77
2022-09-06T00:43:20.898Z,82.63
2022-09-06T00:43:52.503Z,82.90
2022-09-06T00:44:24.081Z,83.14
2022-09-06T00:44:55.612Z,83.35
2022-09-06T00:45:28.026Z,82.85
2022-09-06T00:46:00.044Z,82.73
2022-09-06T00:46:32.766Z,82.99
2022-09-06T00:47:05.512Z,83.03
2022-09-06T00:47:38.915Z,83.28
2022-09-06T00:48:10.504Z,83.36
2022-09-06T00:48:42.842Z,83.42
2022-09-06T00:49:24.776Z,83.47
2022-09-06T00:49:57.212Z,83.23
2022-09-06T00:50:29.419Z,82.91
2022-09-06T00:51:02.621Z,83.03
2022-09-06T00:51:35.598Z,83.34
2022-09-06T00:52:11.153Z,83.43
2022-09-06T00:52:43.338Z,83.29
2022-09-06T00:53:14.928Z,83.41
2022-09-06T00:53:46.608Z,83.45
2022-09-06T00:54:18.471Z,83.72
2022-09-06T00:54:50.609Z,83.66
2022-09-06T00:55:22.351Z,83.47
2022-09-06T00:55:54.711Z,83.64
2022-09-06T00:56:26.475Z,83.26
2022-09-06T00:56:58.687Z,82.89
2022-09-06T00:57:32.106Z,82.47
2022-09-06T00:58:03.789Z,82.86
2022-09-06T00:58:35.626Z,82.52
2022-09-06T00:59:07.443Z,82.43
2022-09-06T00:59:40.084Z,82.55
2022-09-06T01:00:12.059Z,82.25
2022-09-06T01:00:44.892Z,82.28
2022-09-06T01:01:16.475Z,82.21
2022-09-06T01:01:48.199Z,82.23
2022-09-06T01:02:20.218Z,82.09
2022-09-06T01:02:53.876Z,82.36
2022-09-06T01:03:25.987Z,82.64
2022-09-06T01:03:57.559Z,82.58
2022-09-06T01:04:29.392Z,82.52
2022-09-06T01:05:02.055Z,82.44
2022-09-06T01:05:54.329Z,82.17
2022-09-06T01:06:32.603Z,82.74
2022-09-06T01:07:10.076Z,82.50
2022-09-06T01:08:13.616Z,83.31
2022-09-06T01:09:03.184Z,83.24
2022-09-06T01:09:54.150Z,83.36
2022-09-06T01:10:53.871Z,83.51
2022-09-06T01:11:44.386Z,83.17
2022-09-06T01:12:22.400Z,83.75
2022-09-06T01:13:03.107Z,83.60
2022-09-06T01:13:58.426Z,83.25
2022-09-06T01:14:45.453Z,83.41
2022-09-06T01:15:29.970Z,83.24
2022-09-06T01:16:14.123Z,83.36
2022-09-06T01:16:54.578Z,83.25
2022-09-06T01:17:52.411Z,83.32
2022-09-06T01:18:34.496Z,83.47
2022-09-06T01:19:38.164Z,83.13
2022-09-06T01:20:29.186Z,83.29
2022-09-06T01:21:19.392Z,83.29
2022-09-06T01:22:03.020Z,83.03
2022-09-06T01:23:04.707Z,83.28
2022-09-06T01:23:45.316Z,83.38
2022-09-06T01:24:19.563Z,83.06
2022-09-06T01:24:53.741Z,82.61
2022-09-06T01:25:43.620Z,82.30
2022-09-06T01:26:33.588Z,82.44
2022-09-06T01:27:25.699Z,82.33
2022-09-06T01:28:32.091Z,82.36
2022-09-06T01:29:13.230Z,82.39
2022-09-06T01:29:53.962Z,82.53
2022-09-06T01:30:25.574Z,82.86
2022-09-06T01:31:24.857Z,83.05
2022-09-06T01:32:09.237Z,83.45
2022-09-06T01:33:07.566Z,83.32
2022-09-06T01:33:46.403Z,83.28
2022-09-06T01:34:32.759Z,83.33
2022-09-06T01:35:32.256Z,83.49
2022-09-06T01:36:08.055Z,83.33
2022-09-06T01:37:10.791Z,83.25
2022-09-06T01:37:43.567Z,83.12
2022-09-06T01:38:16.115Z,83.74
2022-09-06T01:38:47.627Z,83.51
2022-09-06T01:39:26.842Z,84.17
2022-09-06T01:39:58.487Z,84.15
2022-09-06T01:40:30.239Z,84.25
2022-09-06T01:41:01.730Z,83.69
2022-09-06T01:41:33.636Z,83.84
2022-09-06T01:42:06.635Z,83.92
2022-09-06T01:42:39.419Z,83.71
2022-09-06T01:43:13.044Z,83.60
2022-09-06T01:43:49.148Z,83.70
2022-09-06T01:44:21.848Z,83.78
2022-09-06T01:45:07.139Z,83.88
2022-09-06T01:45:58.235Z,84.89
2022-09-06T01:46:39.557Z,85.93
2022-09-06T01:47:25.783Z,86.13
2022-09-06T01:48:11.111Z,86.02
2022-09-06T01:48:58.947Z,85.67
2022-09-06T01:50:06.389Z,85.28
2022-09-06T01:51:12.855Z,86.24
2022-09-06T01:52:02.778Z,87.87
2022-09-06T01:52:37.725Z,88.64
2022-09-06T01:53:22.220Z,89.95
2022-09-06T01:54:05.378Z,90.37
2022-09-06T01:54:54.835Z,90.86
2022-09-06T01:56:03.769Z,90.82
2022-09-06T01:56:57.965Z,91.84
2022-09-06T01:57:46.284Z,93.09
2022-09-06T01:58:29.557Z,92.66
2022-09-06T01:59:03.790Z,92.84
2022-09-06T01:59:39.545Z,92.02
2022-09-06T02:00:13.533Z,91.58
2022-09-06T02:00:50.967Z,90.79
2022-09-06T02:01:35.413Z,89.94
2022-09-06T02:02:13.743Z,89.72
2022-09-06T02:02:57.074Z,89.77
2022-09-06T02:03:38.909Z,89.34
2022-09-06T02:04:38.038Z,89.66
2022-09-06T02:05:16.228Z,90.32
2022-09-06T02:05:52.496Z,90.88
2022-09-06T02:06:28.466Z,91.88
2022-09-06T02:07:18.835Z,92.26
2022-09-06T02:07:54.096Z,93.10
2022-09-06T02:08:33.313Z,92.58
2022-09-06T02:09:09.048Z,92.64
2022-09-06T02:09:41.296Z,92.27
2022-09-06T02:10:22.591Z,92.58
2022-09-06T02:11:04.580Z,93.04
2022-09-06T02:11:42.724Z,93.46
2022-09-06T02:12:14.787Z,93.41
2022-09-06T02:12:48.390Z,93.11
2022-09-06T02:13:22.089Z,92.73
2022-09-06T02:13:59.507Z,92.01
2022-09-06T02:14:40.803Z,92.34
2022-09-06T02:15:24.222Z,92.77
2022-09-06T02:16:02.604Z,93.60
2022-09-06T02:16:34.918Z,93.84
2022-09-06T02:17:09.045Z,93.91
2022-09-06T02:17:44.665Z,93.41
2022-09-06T02:18:22.524Z,93.17
2022-09-06T02:18:58.797Z,93.45
2022-09-06T02:19:33.178Z,93.96
2022-09-06T02:20:10.831Z,93.23
2022-09-06T02:20:46.965Z,92.71
2022-09-06T02:21:21.199Z,92.32
2022-09-06T02:21:54.435Z,92.26
2022-09-06T02:22:30.307Z,92.00
2022-09-06T02:23:04.611Z,92.37
2022-09-06T02:23:39.422Z,92.14
2022-09-06T02:24:18.552Z,92.68
2022-09-06T02:24:52.512Z,92.94
2022-09-06T02:25:31.795Z,92.97
2022-09-06T02:26:08.298Z,94.03
2022-09-06T02:26:42.769Z,94.83
2022-09-06T02:27:14.632Z,95.07
2022-09-06T02:27:46.588Z,94.40
2022-09-06T02:28:18.505Z,93.78
2022-09-06T02:28:50.111Z,92.91
2022-09-06T02:29:21.830Z,92.88
2022-09-06T02:29:53.482Z,92.96
2022-09-06T02:30:25.112Z,93.33
2022-09-06T02:30:59.809Z,93.90
2022-09-06T02:32:14.792Z,92.67
2022-09-06T02:33:09.147Z,91.98
2022-09-06T02:33:41.572Z,91.00
2022-09-06T02:34:18.092Z,90.69
2022-09-06T02:34:55.736Z,90.44
2022-09-06T02:35:27.451Z,90.13
2022-09-06T02:36:05.746Z,89.76
2022-09-06T02:36:37.932Z,90.54
2022-09-06T02:37:11.059Z,90.94
2022-09-06T02:37:43.412Z,91.41
2022-09-06T02:38:15.556Z,91.60
2022-09-06T02:38:47.398Z,91.37
2022-09-06T02:39:19.135Z,90.88
2022-09-06T02:39:50.692Z,90.36
2022-09-06T02:40:22.714Z,90.80
2022-09-06T02:40:54.395Z,90.46
2022-09-06T02:41:26.747Z,90.57
2022-09-06T02:41:58.794Z,90.24
2022-09-06T02:42:30.427Z,90.19
2022-09-06T02:43:01.925Z,89.70
2022-09-06T02:43:33.976Z,90.23
2022-09-06T02:44:05.484Z,90.67
2022-09-06T02:44:37.125Z,90.75
2022-09-06T02:45:09.135Z,90.25
2022-09-06T02:45:41.568Z,89.82
2022-09-06T02:46:13.757Z,90.26
2022-09-06T02:46:45.430Z,90.22
2022-09-06T02:47:17.018Z,90.81
2022-09-06T02:47:48.569Z,90.71
2022-09-06T02:48:20.098Z,91.57
2022-09-06T02:48:51.857Z,92.04
2022-09-06T02:49:23.885Z,92.17
2022-09-06T02:49:55.420Z,92.07
2022-09-06T02:50:27.085Z,92.22
2022-09-06T02:51:02.718Z,91.74
2022-09-06T02:51:40.552Z,92.22
2022-09-06T02:52:12.058Z,91.97
2022-09-06T02:52:43.541Z,92.18
2022-09-06T02:53:16.076Z,92.43
2022-09-06T02:53:47.808Z,92.66
2022-09-06T02:54:19.426Z,92.74
2022-09-06T02:54:51.704Z,92.94
2022-09-06T02:55:23.356Z,93.12
2022-09-06T02:55:54.839Z,93.13
2022-09-06T02:56:26.321Z,93.27
2022-09-06T02:56:57.951Z,93.85
2022-09-06T02:57:29.576Z,94.23
2022-09-06T02:58:01.879Z,94.07
2022-09-06T02:58:33.416Z,94.25
2022-09-06T02:59:05.687Z,94.58
2022-09-06T02:59:37.196Z,94.57
2022-09-06T03:00:09.313Z,94.30
2022-09-06T03:00:41.057Z,94.50
2022-09-06T03:01:12.609Z,94.45
2022-09-06T03:01:44.212Z,94.04
2022-09-06T03:02:16.660Z,94.95
2022-09-06T03:02:48.625Z,94.79
2022-09-06T03:03:21.241Z,95.01
2022-09-06T03:03:52.741Z,95.04
2022-09-06T03:04:24.435Z,95.38
2022-09-06T03:04:56.047Z,95.39
2022-09-06T03:05:28.022Z,95.59
2022-09-06T03:05:59.551Z,95.59
2022-09-06T03:06:31.384Z,95.92
2022-09-06T03:07:02.909Z,95.96
2022-09-06T03:07:34.477Z,96.28
2022-09-06T03:08:06.246Z,96.76
2022-09-06T03:08:38.350Z,97.13
2022-09-06T03:09:10.449Z,96.79
2022-09-06T03:09:41.923Z,96.86
2022-09-06T03:10:13.534Z,96.85
2022-09-06T03:10:51.379Z,96.81
2022-09-06T03:11:22.899Z,96.95
2022-09-06T03:11:54.362Z,97.35
2022-09-06T03:12:25.834Z,97.59
2022-09-06T03:12:57.584Z,97.49
2022-09-06T03:13:29.256Z,97.67
2022-09-06T03:14:00.783Z,97.63
2022-09-06T03:14:32.329Z,97.75
2022-09-06T03:15:04.187Z,98.37
2022-09-06T03:15:35.691Z,98.40
2022-09-06T03:16:07.295Z,97.99
2022-09-06T03:16:38.867Z,97.92
2022-09-06T03:17:10.551Z,98.00
2022-09-06T03:17:42.693Z,97.67
2022-09-06T03:18:14.816Z,97.66
2022-09-06T03:18:46.991Z,97.14
2022-09-06T03:19:20.143Z,96.76
2022-09-06T03:19:51.716Z,97.07
2022-09-06T03:20:23.323Z,97.20
2022-09-06T03:20:55.632Z,97.62
2022-09-06T03:21:27.133Z,97.81
2022-09-06T03:21:58.702Z,97.75
2022-09-06T03:22:31.083Z,97.99
2022-09-06T03:23:03.015Z,98.19
2022-09-06T03:23:34.570Z,98.74
2022-09-06T03:24:06.590Z,98.75
2022-09-06T03:24:38.247Z,98.75
2022-09-06T03:25:10.775Z,99.07
2022-09-06T03:25:43.054Z,99.15
2022-09-06T03:26:14.545Z,99.24
2022-09-06T03:26:46.117Z,98.90
2022-09-06T03:27:17.611Z,98.75
2022-09-06T03:27:49.122Z,98.98
2022-09-06T03:28:21.392Z,99.00
2022-09-06T03:28:52.954Z,98.80
2022-09-06T03:29:24.504Z,99.55
2022-09-06T03:29:55.982Z,99.60
2022-09-06T03:30:27.527Z,99.44
2022-09-06T03:30:59.101Z,99.40
2022-09-06T03:31:30.637Z,99.17
2022-09-06T03:32:02.510Z,99.15
2022-09-06T03:32:34.048Z,99.03
2022-09-06T03:33:05.597Z,99.03
2022-09-06T03:33:37.270Z,99.22
2022-09-06T03:34:11.120Z,99.12
2022-09-06T03:34:43.167Z,99.24
2022-09-06T03:35:15.260Z,99.57
2022-09-06T03:35:58.687Z,99.76
2022-09-06T03:36:30.185Z,99.75
2022-09-06T03:37:01.692Z,100.00
2022-09-06T03:37:33.330Z,100.00
2022-09-06T03:38:04.981Z,100.00
2022-09-06T03:38:36.684Z,100.00
2022-09-06T03:39:08.805Z,100.00
2022-09-06T03:39:40.645Z,100.00
2022-09-06T03:40:12.584Z,100.00
2022-09-06T03:40:46.028Z,100.00
2022-09-06T03:41:17.566Z,100.00
2022-09-06T03:41:49.062Z,99.81
2022-09-06T03:42:21.788Z,99.69
2022-09-06T03:42:53.286Z,99.77
2022-09-06T03:43:25.871Z,99.76
2022-09-06T03:43:57.369Z,99.95
2022-09-06T03:44:28.859Z,99.86
2022-09-06T03:45:00.438Z,99.44
2022-09-06T03:45:32.032Z,99.58
2022-09-06T03:46:03.607Z,99.62
2022-09-06T03:46:35.217Z,99.39
2022-09-06T03:47:06.787Z,99.17
2022-09-06T03:47:38.314Z,99.21
2022-09-06T03:48:09.863Z,99.09
2022-09-06T03:48:41.463Z,98.86
2022-09-06T03:49:13.165Z,99.34
2022-09-06T03:49:45.307Z,99.32
2022-09-06T03:50:16.872Z,99.11
2022-09-06T03:50:51.228Z,99.13
2022-09-06T03:51:22.821Z,99.09
2022-09-06T03:51:54.618Z,99.19
2022-09-06T03:52:26.091Z,99.14
2022-09-06T03:52:57.605Z,99.05
2022-09-06T03:53:29.598Z,99.33
2022-09-06T03:54:01.142Z,99.38
2022-09-06T03:54:32.975Z,98.99
2022-09-06T03:55:05.294Z,99.33
2022-09-06T03:55:36.800Z,99.45
2022-09-06T03:56:08.373Z,99.72
2022-09-06T03:56:39.967Z,99.54
2022-09-06T03:57:11.478Z,99.99
2022-09-06T03:57:42.970Z,99.97
2022-09-06T03:58:16.881Z,99.88
2022-09-06T03:58:48.442Z,99.93
2022-09-06T03:59:19.940Z,100.00
2022-09-06T03:59:51.412Z,100.00
2022-09-06T04:00:24.108Z,100.00
2022-09-06T04:01:10.107Z,100.00
2022-09-06T04:01:41.671Z,100.00
2022-09-06T04:02:13.465Z,100.00
2022-09-06T04:02:45.005Z,100.00
2022-09-06T04:03:19.409Z,100.00
2022-09-06T04:03:51.063Z,100.00
2022-09-06T04:04:22.639Z,100.00
2022-09-06T04:04:55.624Z,100.00
2022-09-06T04:05:27.222Z,100.00
2022-09-06T04:05:58.829Z,100.00
2022-09-06T04:06:30.356Z,100.00
2022-09-06T04:07:01.919Z,100.00
2022-09-06T04:07:33.468Z,100.00
2022-09-06T04:08:05.965Z,99.51
2022-09-06T04:08:38.214Z,99.22
2022-09-06T04:09:09.928Z,99.54
2022-09-06T04:09:41.495Z,99.50
2022-09-06T04:10:12.988Z,99.52
2022-09-06T04:10:45.259Z,99.54
2022-09-06T04:11:17.576Z,98.62
2022-09-06T04:11:49.154Z,98.91
2022-09-06T04:12:20.627Z,99.04
2022-09-06T04:12:52.164Z,99.07
2022-09-06T04:13:24.808Z,98.88
2022-09-06T04:13:56.366Z,98.83
2022-09-06T04:14:27.867Z,98.97
2022-09-06T04:14:59.635Z,99.31
2022-09-06T04:15:31.131Z,99.83
2022-09-06T04:16:03.793Z,99.87
2022-09-06T04:16:35.599Z,100.00
2022-09-06T04:17:07.171Z,99.94
2022-09-06T04:17:38.756Z,99.94
2022-09-06T04:18:10.277Z,99.96
2022-09-06T04:18:41.884Z,100.00
2022-09-06T04:19:13.428Z,100.00
2022-09-06T04:19:44.966Z,100.00
2022-09-06T04:20:17.406Z,100.00
2022-09-06T04:20:50.730Z,100.00
2022-09-06T04:21:22.283Z,100.00
2022-09-06T04:21:53.933Z,100.00
2022-09-06T04:22:25.560Z,100.00
2022-09-06T04:22:57.196Z,100.00
2022-09-06T04:23:29.468Z,100.00
2022-09-06T04:24:01.159Z,100.00
2022-09-06T04:24:32.739Z,100.00
2022-09-06T04:25:05.613Z,100.00
2022-09-06T04:25:37.167Z,100.00
2022-09-06T04:26:08.754Z,100.00
2022-09-06T04:26:40.367Z,100.00
2022-09-06T04:27:12.086Z,100.00
2022-09-06T04:27:43.763Z,100.00
2022-09-06T04:28:16.564Z,100.00
2022-09-06T04:28:48.243Z,100.00
2022-09-06T04:29:19.815Z,100.00
2022-09-06T04:29:52.682Z,100.00
2022-09-06T04:30:25.140Z,100.00
2022-09-06T04:31:05.326Z,100.00
2022-09-06T04:35:01.476Z,100.00
2022-09-06T04:35:50.374Z,100.00
2022-09-06T04:36:22.480Z,100.00
2022-09-06T04:36:54.193Z,100.00
2022-09-06T04:37:26.097Z,100.00
2022-09-06T04:38:00.933Z,100.00
2022-09-06T04:38:56.172Z,100.00
2022-09-06T04:39:27.774Z,100.00
2022-09-06T04:39:59.677Z,100.00
2022-09-06T04:40:31.291Z,100.00
2022-09-06T04:41:03.644Z,100.00
2022-09-06T04:41:35.208Z,100.00
2022-09-06T04:42:06.866Z,100.00
2022-09-06T04:42:38.477Z,100.00
2022-09-06T04:43:10.112Z,100.00
2022-09-06T04:43:42.548Z,100.00
2022-09-06T04:44:14.083Z,100.00
2022-09-06T04:44:45.734Z,100.00
2022-09-06T04:45:17.368Z,100.00
2022-09-06T04:45:49.066Z,100.00
2022-09-06T04:46:23.004Z,100.00
2022-09-06T04:47:09.453Z,100.00
2022-09-06T04:47:41.244Z,100.00
2022-09-06T04:48:13.207Z,100.00
2022-09-06T04:48:44.761Z,100.00
2022-09-06T04:49:16.372Z,100.00
2022-09-06T04:49:50.775Z,100.00
2022-09-06T04:50:22.294Z,100.00
2022-09-06T04:50:53.991Z,100.00
2022-09-06T04:51:25.811Z,100.00
2022-09-06T04:51:57.416Z,100.00
2022-09-06T04:52:30.357Z,100.00
2022-09-06T04:53:02.096Z,100.00
2022-09-06T04:53:33.652Z,100.00
2022-09-06T04:54:05.944Z,100.00
2022-09-06T04:54:38.584Z,100.00
2022-09-06T04:55:10.106Z,100.00
2022-09-06T04:55:41.647Z,100.00
2022-09-06T04:56:16.077Z,100.00
2022-09-06T04:56:47.571Z,100.00
2022-09-06T04:57:19.110Z,100.00
2022-09-06T04:57:52.857Z,100.00
2022-09-06T04:58:24.814Z,100.00
2022-09-06T04:58:56.396Z,100.00
2022-09-06T04:59:27.930Z,100.00
2022-09-06T04:59:59.453Z,100.00
2022-09-06T05:00:32.503Z,100.00
2022-09-06T05:01:04.131Z,100.00
2022-09-06T05:01:35.756Z,100.00
2022-09-06T05:02:07.417Z,100.00
2022-09-06T05:02:39.186Z,100.00
2022-09-06T05:03:10.813Z,100.00
2022-09-06T05:03:42.476Z,100.00
2022-09-06T05:04:14.050Z,100.00
2022-09-06T05:04:45.535Z,100.00
2022-09-06T05:05:17.043Z,100.00
2022-09-06T05:05:48.543Z,100.00
2022-09-06T05:06:22.963Z,100.00
2022-09-06T05:07:05.431Z,100.00
2022-09-06T05:07:37.088Z,100.00
2022-09-06T05:08:08.659Z,100.00
2022-09-06T05:08:41.089Z,100.00
2022-09-06T05:09:12.658Z,100.00
2022-09-06T05:09:44.192Z,100.00
2022-09-06T05:10:15.764Z,100.00
2022-09-06T05:10:51.339Z,100.00
2022-09-06T05:11:23.671Z,100.00
2022-09-06T05:11:55.200Z,100.00
2022-09-06T05:12:26.698Z,100.00
2022-09-06T05:12:58.237Z,100.00
2022-09-06T05:13:29.793Z,100.00
2022-09-06T05:14:01.371Z,100.00
2022-09-06T05:14:32.957Z,100.00
2022-09-06T05:15:04.677Z,100.00
2022-09-06T05:15:36.236Z,100.00
2022-09-06T05:16:09.113Z,100.00
2022-09-06T05:16:41.001Z,100.00
2022-09-06T05:17:14.742Z,100.00
2022-09-06T05:17:46.285Z,100.00
2022-09-06T05:18:17.815Z,100.00
2022-09-06T05:18:49.311Z,100.00
2022-09-06T05:19:21.446Z,100.00
2022-09-06T05:19:52.966Z,100.00
2022-09-06T05:20:24.490Z,100.00
2022-09-06T05:20:56.186Z,100.00
2022-09-06T05:21:27.675Z,100.00
2022-09-06T05:21:59.195Z,100.00
2022-09-06T05:22:30.702Z,100.00
2022-09-06T05:23:02.277Z,100.00
2022-09-06T05:23:33.919Z,100.00
2022-09-06T05:24:05.638Z,100.00
2022-09-06T05:24:37.272Z,100.00
2022-09-06T05:25:10.098Z,100.00
2022-09-06T05:25:41.673Z,100.00
2022-09-06T05:26:13.250Z,100.00
2022-09-06T05:26:44.794Z,100.00
2022-09-06T05:27:16.315Z,100.00
2022-09-06T05:27:47.903Z,100.00
2022-09-06T05:28:19.585Z,100.00
2022-09-06T05:28:51.257Z,100.00
2022-09-06T05:29:22.898Z,100.00
2022-09-06T05:29:54.459Z,100.00
2022-09-06T05:30:26.120Z,100.00
2022-09-06T05:31:08.702Z,100.00
2022-09-06T05:31:40.389Z,100.00
2022-09-06T05:32:12.138Z,100.00
2022-09-06T05:32:44.106Z,100.00
2022-09-06T05:33:20.979Z,100.00
2022-09-06T05:33:53.668Z,100.00
2022-09-06T05:34:25.245Z,100.00
2022-09-06T05:34:56.763Z,100.00
2022-09-06T05:35:28.290Z,100.00
2022-09-06T05:36:00.150Z,100.00
2022-09-06T05:36:31.718Z,100.00
2022-09-06T05:37:03.477Z,100.00
2022-09-06T05:37:35.106Z,100.00
2022-09-06T05:38:06.664Z,100.00
2022-09-06T05:38:38.246Z,100.00
2022-09-06T05:39:09.762Z,100.00
2022-09-06T05:39:41.419Z,100.00
2022-09-06T05:40:12.999Z,100.00
2022-09-06T05:40:44.739Z,100.00
2022-09-06T05:41:16.301Z,100.00
2022-09-06T05:41:48.064Z,100.00
2022-09-06T05:42:19.660Z,100.00
2022-09-06T05:42:51.230Z,100.00
2022-09-06T05:43:22.820Z,100.00
2022-09-06T05:43:54.406Z,100.00
2022-09-06T05:44:25.995Z,100.00
2022-09-06T05:44:57.619Z,100.00
2022-09-06T05:45:29.375Z,100.00
2022-09-06T05:46:01.027Z,100.00
2022-09-06T05:46:32.644Z,100.00
2022-09-06T05:47:04.411Z,100.00
2022-09-06T05:47:35.971Z,100.00
2022-09-06T05:48:08.635Z,100.00
2022-09-06T05:48:40.348Z,100.00
2022-09-06T05:49:13.006Z,100.00
2022-09-06T05:49:44.592Z,100.00
2022-09-06T05:50:16.373Z,100.00
2022-09-06T05:50:47.913Z,100.00
2022-09-06T05:51:19.415Z,100.00
2022-09-06T05:51:52.554Z,100.00
2022-09-06T05:52:24.233Z,100.00
2022-09-06T05:52:55.905Z,100.00
2022-09-06T05:53:27.444Z,100.00
2022-09-06T05:53:59.271Z,100.00
2022-09-06T05:54:30.792Z,100.00
2022-09-06T05:55:03.482Z,100.00
2022-09-06T05:55:35.055Z,100.00
2022-09-06T05:56:07.523Z,100.00
2022-09-06T05:56:39.141Z,100.00
2022-09-06T05:57:10.652Z,100.00
2022-09-06T05:57:42.251Z,100.00
2022-09-06T05:58:13.893Z,100.00
2022-09-06T05:58:47.539Z,100.00
2022-09-06T05:59:19.059Z,100.00
2022-09-06T05:59:50.820Z,100.00
2022-09-06T06:00:22.351Z,100.00
2022-09-06T06:01:23.165Z,100.00
2022-09-06T06:01:55.200Z,100.00
2022-09-06T06:02:26.929Z,100.00
2022-09-06T06:02:58.629Z,100.00
2022-09-06T06:03:30.251Z,100.00
2022-09-06T06:04:04.642Z,100.00
2022-09-06T06:04:36.273Z,100.00
2022-09-06T06:05:08.221Z,100.00
2022-09-06T06:05:39.736Z,100.00
2022-09-06T06:06:11.278Z,100.00
2022-09-06T06:06:42.788Z,100.00
2022-09-06T06:07:14.934Z,100.00
2022-09-06T06:07:46.469Z,100.00
2022-09-06T06:08:18.275Z,100.00
2022-09-06T06:08:50.106Z,100.00
2022-09-06T06:09:21.703Z,100.00
2022-09-06T06:09:53.209Z,100.00
2022-09-06T06:10:24.732Z,100.00
2022-09-06T06:11:00.369Z,100.00
2022-09-06T06:11:32.167Z,100.00
2022-09-06T06:12:03.807Z,100.00
2022-09-06T06:12:35.461Z,100.00
2022-09-06T06:13:07.526Z,100.00
2022-09-06T06:13:43.188Z,100.00
2022-09-06T06:14:14.836Z,100.00
2022-09-06T06:14:46.535Z,100.00
2022-09-06T06:15:18.090Z,100.00
2022-09-06T06:15:49.649Z,100.00
2022-09-06T06:16:22.453Z,100.00
2022-09-06T06:16:54.099Z,100.00
2022-09-06T06:17:25.730Z,100.00
2022-09-06T06:17:57.945Z,100.00
2022-09-06T06:18:29.651Z,100.00
2022-09-06T06:19:01.190Z,100.00
2022-09-06T06:19:32.760Z,100.00
2022-09-06T06:20:04.598Z,100.00
2022-09-06T06:20:36.096Z,100.00
2022-09-06T06:21:21.783Z,100.00
2022-09-06T06:21:53.550Z,100.00
2022-09-06T06:22:25.516Z,100.00
2022-09-06T06:22:57.082Z,100.00
2022-09-06T06:23:28.639Z,100.00
2022-09-06T06:24:02.688Z,100.00
2022-09-06T06:24:34.276Z,100.00
2022-09-06T06:25:06.522Z,100.00
2022-09-06T06:25:38.192Z,100.00
2022-09-06T06:26:10.800Z,100.00
2022-09-06T06:26:42.310Z,100.00
2022-09-06T06:27:13.792Z,100.00
2022-09-06T06:27:45.309Z,100.00
2022-09-06T06:28:16.879Z,100.00
2022-09-06T06:28:49.061Z,100.00
2022-09-06T06:29:20.742Z,100.00
2022-09-06T06:29:52.816Z,100.00
2022-09-06T06:30:24.441Z,100.00
2022-09-06T06:30:55.990Z,100.00
2022-09-06T06:31:28.485Z,100.00
2022-09-06T06:32:00.151Z,100.00
2022-09-06T06:32:31.803Z,100.00
2022-09-06T06:33:03.439Z,100.00
2022-09-06T06:33:36.312Z,100.00
2022-09-06T06:34:08.320Z,100.00
2022-09-06T06:34:39.816Z,100.00
2022-09-06T06:35:11.654Z,100.00
2022-09-06T06:35:59.581Z,100.00
2022-09-06T06:36:33.813Z,100.00
2022-09-06T06:37:05.417Z,100.00
2022-09-06T06:37:36.914Z,100.00
2022-09-06T06:38:08.393Z,100.00
2022-09-06T06:38:41.894Z,100.00
2022-09-06T06:39:13.736Z,100.00
2022-09-06T06:39:45.328Z,100.00
2022-09-06T06:40:16.912Z,100.00
2022-09-06T06:40:48.397Z,100.00
2022-09-06T06:41:23.843Z,100.00
2022-09-06T06:41:55.655Z,100.00
2022-09-06T06:42:50.142Z,100.00
2022-09-06T06:43:21.774Z,100.00
2022-09-06T06:43:58.068Z,100.00
2022-09-06T06:44:29.602Z,100.00
2022-09-06T06:45:01.173Z,100.00
2022-09-06T06:45:32.861Z,100.00
2022-09-06T06:46:05.263Z,100.00
2022-09-06T06:46:38.154Z,100.00
2022-09-06T06:47:09.738Z,100.00
2022-09-06T06:47:41.290Z,100.00
2022-09-06T06:48:13.012Z,100.00
2022-09-06T06:48:45.505Z,100.00
2022-09-06T06:49:17.046Z,100.00
2022-09-06T06:49:49.104Z,100.00
2022-09-06T06:50:20.628Z,100.00
2022-09-06T06:50:52.173Z,100.00
2022-09-06T06:51:27.120Z,100.00
2022-09-06T06:51:58.733Z,100.00
2022-09-06T06:52:30.589Z,100.00
2022-09-06T06:53:02.135Z,100.00
2022-09-06T06:53:35.307Z,100.00
2022-09-06T06:54:06.955Z,100.00
2022-09-06T06:54:38.488Z,100.00
2022-09-06T06:55:10.047Z,100.00
2022-09-06T06:55:47.129Z,100.00
2022-09-06T06:56:24.310Z,100.00
2022-09-06T06:57:00.924Z,100.00
2022-09-06T06:57:33.011Z,100.00
2022-09-06T06:58:04.624Z,100.00
2022-09-06T06:58:36.150Z,100.00
2022-09-06T06:59:08.187Z,100.00
2022-09-06T06:59:39.912Z,100.00
2022-09-06T07:00:11.939Z,100.00
2022-09-06T07:00:44.430Z,100.00
2022-09-06T07:01:16.842Z,100.00
2022-09-06T07:01:50.544Z,100.00
2022-09-06T07:02:22.379Z,99.52
2022-09-06T07:02:55.868Z,98.34
2022-09-06T07:03:27.416Z,97.39
2022-09-06T07:03:59.222Z,96.49
2022-09-06T07:04:30.783Z,96.00
2022-09-06T07:05:02.413Z,95.65
2022-09-06T07:07:36.772Z,88.44
2022-09-06T07:08:11.270Z,87.30
2022-09-06T07:08:43.105Z,86.92
2022-09-06T07:09:15.620Z,85.99
2022-09-06T07:10:38.811Z,83.37
2022-09-06T07:11:12.217Z,79.71
2022-09-06T07:11:44.043Z,76.95
2022-09-06T07:12:15.675Z,75.69
2022-09-06T07:12:47.267Z,73.93
2022-09-06T07:13:19.071Z,72.61
2022-09-06T07:13:50.602Z,71.02
2022-09-06T07:14:22.099Z,71.03
2022-09-06T07:14:53.800Z,69.63
2022-09-06T07:15:25.475Z,67.24
2022-09-06T07:16:10.681Z,65.55
2022-09-06T07:16:42.715Z,64.42
2022-09-06T07:17:14.344Z,64.47
2022-09-06T07:17:46.021Z,63.83
2022-09-06T07:18:18.010Z,64.47
2022-09-06T07:18:53.744Z,63.88